sensor_id;sensor_type;location;lat;lon;timestamp;P1;durP1;ratioP1;P2;durP2;ratioP2
12469;SDS011;36499;46.484;13.832;2023-12-14T00:00:06;1.90;;;1.63;;
12469;SDS011;36499;46.484;13.832;2023-12-14T00:02:34;2.13;;;1.73;;
12469;SDS011;36499;46.484;13.832;2023-12-14T00:05:01;3.13;;;2.00;;
12469;SDS011;36499;46.484;13.832;2023-12-14T00:07:29;1.93;;;1.73;;
12469;SDS011;36499;46.484;13.832;2023-12-14T00:09:56;1.00;;;0.90;;
12469;SDS011;36499;46.484;13.832;2023-12-14T00:12:23;1.50;;;1.30;;
12469;SDS011;36499;46.484;13.832;2023-12-14T00:14:50;1.23;;;1.13;;
12469;SDS011;36499;46.484;13.832;2023-12-14T00:17:17;2.80;;;1.30;;
12469;SDS011;36499;46.484;13.832;2023-12-14T00:19:44;1.20;;;1.10;;
12469;SDS011;36499;46.484;13.832;2023-12-14T00:22:10;1.93;;;1.40;;
12469;SDS011;36499;46.484;13.832;2023-12-14T00:24:39;1.70;;;1.50;;
12469;SDS011;36499;46.484;13.832;2023-12-14T00:27:05;1.80;;;1.40;;
12469;SDS011;36499;46.484;13.832;2023-12-14T00:29:32;2.83;;;1.30;;
12469;SDS011;36499;46.484;13.832;2023-12-14T00:31:59;2.37;;;1.40;;
12469;SDS011;36499;46.484;13.832;2023-12-14T00:34:26;1.50;;;1.30;;
12469;SDS011;36499;46.484;13.832;2023-12-14T00:36:53;1.73;;;1.10;;
12469;SDS011;36499;46.484;13.832;2023-12-14T00:39:20;1.77;;;1.50;;
12469;SDS011;36499;46.484;13.832;2023-12-14T00:41:48;3.33;;;1.73;;
12469;SDS011;36499;46.484;13.832;2023-12-14T00:44:15;2.00;;;1.80;;
12469;SDS011;36499;46.484;13.832;2023-12-14T00:46:41;2.20;;;1.90;;
12469;SDS011;36499;46.484;13.832;2023-12-14T00:49:08;3.13;;;2.33;;
12469;SDS011;36499;46.484;13.832;2023-12-14T00:51:35;2.03;;;1.83;;
12469;SDS011;36499;46.484;13.832;2023-12-14T00:54:03;2.80;;;1.80;;
12469;SDS011;36499;46.484;13.832;2023-12-14T00:56:30;2.70;;;2.10;;
12469;SDS011;36499;46.484;13.832;2023-12-14T00:58:58;2.27;;;1.83;;
12469;SDS011;36499;46.484;13.832;2023-12-14T01:01:25;3.23;;;2.10;;
12469;SDS011;36499;46.484;13.832;2023-12-14T01:03:51;2.47;;;1.50;;
12469;SDS011;36499;46.484;13.832;2023-12-14T01:06:18;0.90;;;0.90;;
12469;SDS011;36499;46.484;13.832;2023-12-14T01:08:45;2.03;;;0.90;;
12469;SDS011;36499;46.484;13.832;2023-12-14T01:11:12;1.17;;;0.93;;
12469;SDS011;36499;46.484;13.832;2023-12-14T01:13:39;1.20;;;1.10;;
12469;SDS011;36499;46.484;13.832;2023-12-14T01:16:08;1.20;;;1.10;;
12469;SDS011;36499;46.484;13.832;2023-12-14T01:18:35;1.27;;;1.17;;
12469;SDS011;36499;46.484;13.832;2023-12-14T01:21:01;1.60;;;1.33;;
12469;SDS011;36499;46.484;13.832;2023-12-14T01:23:29;2.13;;;1.30;;
12469;SDS011;36499;46.484;13.832;2023-12-14T01:25:56;3.67;;;1.47;;
12469;SDS011;36499;46.484;13.832;2023-12-14T01:28:23;1.70;;;1.57;;
12469;SDS011;36499;46.484;13.832;2023-12-14T01:30:50;2.73;;;1.70;;
12469;SDS011;36499;46.484;13.832;2023-12-14T01:33:18;2.87;;;1.63;;
12469;SDS011;36499;46.484;13.832;2023-12-14T01:35:45;1.97;;;1.70;;
12469;SDS011;36499;46.484;13.832;2023-12-14T01:38:12;2.60;;;1.77;;
12469;SDS011;36499;46.484;13.832;2023-12-14T01:40:39;2.50;;;1.57;;
12469;SDS011;36499;46.484;13.832;2023-12-14T01:43:06;2.23;;;1.13;;
12469;SDS011;36499;46.484;13.832;2023-12-14T01:45:35;1.40;;;1.30;;
12469;SDS011;36499;46.484;13.832;2023-12-14T01:48:02;2.43;;;1.50;;
12469;SDS011;36499;46.484;13.832;2023-12-14T01:50:30;2.10;;;1.77;;
12469;SDS011;36499;46.484;13.832;2023-12-14T01:52:57;2.33;;;2.03;;
12469;SDS011;36499;46.484;13.832;2023-12-14T01:55:24;2.23;;;1.83;;
12469;SDS011;36499;46.484;13.832;2023-12-14T01:57:52;4.20;;;2.63;;
12469;SDS011;36499;46.484;13.832;2023-12-14T02:00:19;2.57;;;2.10;;
12469;SDS011;36499;46.484;13.832;2023-12-14T02:02:51;3.07;;;1.80;;
12469;SDS011;36499;46.484;13.832;2023-12-14T02:05:18;2.17;;;1.77;;
12469;SDS011;36499;46.484;13.832;2023-12-14T02:07:46;2.33;;;1.97;;
12469;SDS011;36499;46.484;13.832;2023-12-14T02:10:15;2.37;;;1.60;;
12469;SDS011;36499;46.484;13.832;2023-12-14T02:12:41;2.63;;;2.10;;
12469;SDS011;36499;46.484;13.832;2023-12-14T02:15:08;2.20;;;1.80;;
12469;SDS011;36499;46.484;13.832;2023-12-14T02:17:36;2.00;;;1.80;;
12469;SDS011;36499;46.484;13.832;2023-12-14T02:20:03;1.93;;;1.77;;
12469;SDS011;36499;46.484;13.832;2023-12-14T02:22:34;3.20;;;2.90;;
12469;SDS011;36499;46.484;13.832;2023-12-14T02:25:02;3.00;;;2.77;;
12469;SDS011;36499;46.484;13.832;2023-12-14T02:27:30;2.83;;;2.43;;
12469;SDS011;36499;46.484;13.832;2023-12-14T02:29:57;2.10;;;1.90;;
12469;SDS011;36499;46.484;13.832;2023-12-14T02:32:24;2.20;;;2.00;;
12469;SDS011;36499;46.484;13.832;2023-12-14T02:34:50;2.23;;;2.00;;
12469;SDS011;36499;46.484;13.832;2023-12-14T02:37:17;2.33;;;2.00;;
12469;SDS011;36499;46.484;13.832;2023-12-14T02:39:45;2.13;;;1.83;;
12469;SDS011;36499;46.484;13.832;2023-12-14T02:42:12;2.00;;;1.70;;
12469;SDS011;36499;46.484;13.832;2023-12-14T02:44:39;2.27;;;1.53;;
12469;SDS011;36499;46.484;13.832;2023-12-14T02:47:06;2.07;;;1.67;;
12469;SDS011;36499;46.484;13.832;2023-12-14T02:49:33;1.60;;;1.50;;
12469;SDS011;36499;46.484;13.832;2023-12-14T02:52:00;1.70;;;1.50;;
12469;SDS011;36499;46.484;13.832;2023-12-14T02:54:27;1.23;;;1.13;;
12469;SDS011;36499;46.484;13.832;2023-12-14T02:56:55;1.57;;;1.40;;
12469;SDS011;36499;46.484;13.832;2023-12-14T02:59:22;1.30;;;1.17;;
12469;SDS011;36499;46.484;13.832;2023-12-14T03:01:48;1.40;;;1.20;;
12469;SDS011;36499;46.484;13.832;2023-12-14T03:04:15;1.13;;;1.03;;
12469;SDS011;36499;46.484;13.832;2023-12-14T03:06:42;1.17;;;1.07;;
12469;SDS011;36499;46.484;13.832;2023-12-14T03:09:09;0.67;;;0.67;;
12469;SDS011;36499;46.484;13.832;2023-12-14T03:11:36;1.00;;;1.00;;
12469;SDS011;36499;46.484;13.832;2023-12-14T03:14:04;1.20;;;0.93;;
12469;SDS011;36499;46.484;13.832;2023-12-14T03:16:31;1.67;;;0.90;;
12469;SDS011;36499;46.484;13.832;2023-12-14T03:19:00;1.40;;;1.20;;
12469;SDS011;36499;46.484;13.832;2023-12-14T03:21:27;1.10;;;1.00;;
12469;SDS011;36499;46.484;13.832;2023-12-14T03:23:54;0.80;;;0.80;;
12469;SDS011;36499;46.484;13.832;2023-12-14T03:26:21;1.40;;;1.30;;
12469;SDS011;36499;46.484;13.832;2023-12-14T03:28:48;2.20;;;1.50;;
12469;SDS011;36499;46.484;13.832;2023-12-14T03:31:16;1.93;;;1.40;;
12469;SDS011;36499;46.484;13.832;2023-12-14T03:33:43;1.87;;;1.53;;
12469;SDS011;36499;46.484;13.832;2023-12-14T03:36:10;1.30;;;1.20;;
12469;SDS011;36499;46.484;13.832;2023-12-14T03:38:37;2.00;;;1.73;;
12469;SDS011;36499;46.484;13.832;2023-12-14T03:41:04;2.90;;;2.40;;
12469;SDS011;36499;46.484;13.832;2023-12-14T03:43:31;2.77;;;2.07;;
12469;SDS011;36499;46.484;13.832;2023-12-14T03:45:57;3.13;;;1.70;;
12469;SDS011;36499;46.484;13.832;2023-12-14T03:48:26;2.87;;;1.30;;
12469;SDS011;36499;46.484;13.832;2023-12-14T03:50:52;2.33;;;1.73;;
12469;SDS011;36499;46.484;13.832;2023-12-14T03:53:19;1.87;;;1.30;;
12469;SDS011;36499;46.484;13.832;2023-12-14T03:55:46;1.73;;;1.23;;
12469;SDS011;36499;46.484;13.832;2023-12-14T03:58:13;1.17;;;1.07;;
12469;SDS011;36499;46.484;13.832;2023-12-14T04:00:40;1.10;;;1.00;;
12469;SDS011;36499;46.484;13.832;2023-12-14T04:03:06;2.63;;;2.10;;
12469;SDS011;36499;46.484;13.832;2023-12-14T04:05:35;1.77;;;1.47;;
12469;SDS011;36499;46.484;13.832;2023-12-14T04:08:02;1.57;;;1.20;;
12469;SDS011;36499;46.484;13.832;2023-12-14T04:10:28;1.53;;;1.30;;
12469;SDS011;36499;46.484;13.832;2023-12-14T04:12:55;1.30;;;1.20;;
12469;SDS011;36499;46.484;13.832;2023-12-14T04:15:22;2.47;;;1.40;;
12469;SDS011;36499;46.484;13.832;2023-12-14T04:17:49;1.70;;;1.50;;
12469;SDS011;36499;46.484;13.832;2023-12-14T04:20:16;2.17;;;1.70;;
12469;SDS011;36499;46.484;13.832;2023-12-14T04:22:44;2.37;;;1.80;;
12469;SDS011;36499;46.484;13.832;2023-12-14T04:25:12;3.00;;;2.20;;
12469;SDS011;36499;46.484;13.832;2023-12-14T04:27:38;4.40;;;2.80;;
12469;SDS011;36499;46.484;13.832;2023-12-14T04:30:06;3.20;;;2.43;;
12469;SDS011;36499;46.484;13.832;2023-12-14T04:32:35;3.13;;;2.67;;
12469;SDS011;36499;46.484;13.832;2023-12-14T04:35:02;2.77;;;2.47;;
12469;SDS011;36499;46.484;13.832;2023-12-14T04:37:30;2.20;;;2.00;;
12469;SDS011;36499;46.484;13.832;2023-12-14T04:39:59;2.23;;;1.80;;
12469;SDS011;36499;46.484;13.832;2023-12-14T04:42:26;2.10;;;1.90;;
12469;SDS011;36499;46.484;13.832;2023-12-14T04:44:52;3.10;;;2.30;;
12469;SDS011;36499;46.484;13.832;2023-12-14T04:47:19;2.73;;;2.10;;
12469;SDS011;36499;46.484;13.832;2023-12-14T04:49:46;2.00;;;1.80;;
12469;SDS011;36499;46.484;13.832;2023-12-14T04:52:13;2.83;;;1.80;;
12469;SDS011;36499;46.484;13.832;2023-12-14T04:54:40;1.63;;;1.53;;
12469;SDS011;36499;46.484;13.832;2023-12-14T04:57:08;2.60;;;1.70;;
12469;SDS011;36499;46.484;13.832;2023-12-14T04:59:35;2.33;;;1.50;;
12469;SDS011;36499;46.484;13.832;2023-12-14T05:02:02;2.83;;;2.10;;
12469;SDS011;36499;46.484;13.832;2023-12-14T05:04:29;3.53;;;2.60;;
12469;SDS011;36499;46.484;13.832;2023-12-14T05:06:56;2.80;;;2.27;;
12469;SDS011;36499;46.484;13.832;2023-12-14T05:09:23;4.10;;;2.20;;
12469;SDS011;36499;46.484;13.832;2023-12-14T05:11:49;2.47;;;1.97;;
12469;SDS011;36499;46.484;13.832;2023-12-14T05:14:18;2.27;;;1.97;;
12469;SDS011;36499;46.484;13.832;2023-12-14T05:16:45;2.53;;;1.90;;
12469;SDS011;36499;46.484;13.832;2023-12-14T05:19:11;3.57;;;2.80;;
12469;SDS011;36499;46.484;13.832;2023-12-14T05:21:38;3.93;;;2.90;;
12469;SDS011;36499;46.484;13.832;2023-12-14T05:24:05;7.27;;;2.67;;
12469;SDS011;36499;46.484;13.832;2023-12-14T05:26:32;4.00;;;2.27;;
12469;SDS011;36499;46.484;13.832;2023-12-14T05:28:59;4.53;;;1.97;;
12469;SDS011;36499;46.484;13.832;2023-12-14T05:31:27;2.97;;;2.27;;
12469;SDS011;36499;46.484;13.832;2023-12-14T05:33:54;4.60;;;2.80;;
12469;SDS011;36499;46.484;13.832;2023-12-14T05:36:21;3.53;;;2.17;;
12469;SDS011;36499;46.484;13.832;2023-12-14T05:38:48;2.60;;;1.80;;
12469;SDS011;36499;46.484;13.832;2023-12-14T05:41:15;2.17;;;1.53;;
12469;SDS011;36499;46.484;13.832;2023-12-14T05:43:42;2.23;;;1.67;;
12469;SDS011;36499;46.484;13.832;2023-12-14T05:46:08;2.17;;;1.60;;
12469;SDS011;36499;46.484;13.832;2023-12-14T05:48:37;2.50;;;1.70;;
12469;SDS011;36499;46.484;13.832;2023-12-14T05:51:04;2.27;;;1.63;;
12469;SDS011;36499;46.484;13.832;2023-12-14T05:53:31;1.70;;;1.60;;
12469;SDS011;36499;46.484;13.832;2023-12-14T05:56:01;2.10;;;1.53;;
12469;SDS011;36499;46.484;13.832;2023-12-14T05:58:28;2.50;;;1.50;;
12469;SDS011;36499;46.484;13.832;2023-12-14T06:00:55;1.43;;;1.27;;
12469;SDS011;36499;46.484;13.832;2023-12-14T06:03:22;1.60;;;1.20;;
12469;SDS011;36499;46.484;13.832;2023-12-14T06:05:51;1.97;;;1.20;;
12469;SDS011;36499;46.484;13.832;2023-12-14T06:08:17;1.50;;;1.13;;
12469;SDS011;36499;46.484;13.832;2023-12-14T06:10:44;1.80;;;1.20;;
12469;SDS011;36499;46.484;13.832;2023-12-14T06:13:11;2.20;;;1.43;;
12469;SDS011;36499;46.484;13.832;2023-12-14T06:15:38;1.30;;;1.00;;
12469;SDS011;36499;46.484;13.832;2023-12-14T06:18:05;1.20;;;1.00;;
12469;SDS011;36499;46.484;13.832;2023-12-14T06:20:32;0.80;;;0.80;;
12469;SDS011;36499;46.484;13.832;2023-12-14T06:23:00;1.40;;;1.00;;
12469;SDS011;36499;46.484;13.832;2023-12-14T06:25:27;1.33;;;1.00;;
12469;SDS011;36499;46.484;13.832;2023-12-14T06:27:54;1.10;;;1.00;;
12469;SDS011;36499;46.484;13.832;2023-12-14T06:30:21;0.80;;;0.80;;
12469;SDS011;36499;46.484;13.832;2023-12-14T06:32:47;1.40;;;1.03;;
12469;SDS011;36499;46.484;13.832;2023-12-14T06:35:14;4.57;;;1.47;;
12469;SDS011;36499;46.484;13.832;2023-12-14T06:37:41;2.30;;;1.80;;
12469;SDS011;36499;46.484;13.832;2023-12-14T06:40:10;2.57;;;2.10;;
12469;SDS011;36499;46.484;13.832;2023-12-14T06:42:37;3.93;;;2.33;;
12469;SDS011;36499;46.484;13.832;2023-12-14T06:45:04;1.67;;;1.27;;
12469;SDS011;36499;46.484;13.832;2023-12-14T06:47:32;1.47;;;1.37;;
12469;SDS011;36499;46.484;13.832;2023-12-14T06:49:59;1.60;;;1.30;;
12469;SDS011;36499;46.484;13.832;2023-12-14T06:52:26;3.77;;;1.30;;
12469;SDS011;36499;46.484;13.832;2023-12-14T06:54:53;1.40;;;1.30;;
12469;SDS011;36499;46.484;13.832;2023-12-14T06:57:21;2.33;;;1.30;;
12469;SDS011;36499;46.484;13.832;2023-12-14T06:59:48;1.80;;;1.37;;
12469;SDS011;36499;46.484;13.832;2023-12-14T07:02:15;1.47;;;1.23;;
12469;SDS011;36499;46.484;13.832;2023-12-14T07:04:41;1.40;;;1.20;;
12469;SDS011;36499;46.484;13.832;2023-12-14T07:07:10;3.50;;;1.70;;
12469;SDS011;36499;46.484;13.832;2023-12-14T07:09:38;2.10;;;1.50;;
12469;SDS011;36499;46.484;13.832;2023-12-14T07:12:05;1.90;;;1.63;;
12469;SDS011;36499;46.484;13.832;2023-12-14T07:14:34;1.77;;;1.57;;
12469;SDS011;36499;46.484;13.832;2023-12-14T07:17:01;2.80;;;1.70;;
12469;SDS011;36499;46.484;13.832;2023-12-14T07:19:28;2.67;;;1.60;;
12469;SDS011;36499;46.484;13.832;2023-12-14T07:21:55;1.70;;;1.50;;
12469;SDS011;36499;46.484;13.832;2023-12-14T07:24:21;2.77;;;1.77;;
12469;SDS011;36499;46.484;13.832;2023-12-14T07:26:48;2.17;;;1.30;;
12469;SDS011;36499;46.484;13.832;2023-12-14T07:29:16;2.17;;;1.70;;
12469;SDS011;36499;46.484;13.832;2023-12-14T07:31:44;2.33;;;1.93;;
12469;SDS011;36499;46.484;13.832;2023-12-14T07:34:11;2.17;;;1.73;;
12469;SDS011;36499;46.484;13.832;2023-12-14T07:36:37;2.53;;;1.90;;
12469;SDS011;36499;46.484;13.832;2023-12-14T07:39:04;2.07;;;1.77;;
12469;SDS011;36499;46.484;13.832;2023-12-14T07:41:31;2.10;;;1.77;;
12469;SDS011;36499;46.484;13.832;2023-12-14T07:43:58;2.00;;;1.77;;
12469;SDS011;36499;46.484;13.832;2023-12-14T07:46:25;1.97;;;1.60;;
12469;SDS011;36499;46.484;13.832;2023-12-14T07:48:53;2.53;;;2.10;;
12469;SDS011;36499;46.484;13.832;2023-12-14T07:51:20;2.90;;;2.20;;
12469;SDS011;36499;46.484;13.832;2023-12-14T07:53:46;5.20;;;2.10;;
12469;SDS011;36499;46.484;13.832;2023-12-14T07:56:13;4.93;;;2.07;;
12469;SDS011;36499;46.484;13.832;2023-12-14T07:58:40;2.60;;;2.00;;
12469;SDS011;36499;46.484;13.832;2023-12-14T08:01:06;3.70;;;2.27;;
12469;SDS011;36499;46.484;13.832;2023-12-14T08:03:33;4.60;;;2.67;;
12469;SDS011;36499;46.484;13.832;2023-12-14T08:06:03;2.43;;;2.20;;
12469;SDS011;36499;46.484;13.832;2023-12-14T08:08:29;3.17;;;2.43;;
12469;SDS011;36499;46.484;13.832;2023-12-14T08:10:56;2.43;;;1.97;;
12469;SDS011;36499;46.484;13.832;2023-12-14T08:13:23;3.93;;;2.63;;
12469;SDS011;36499;46.484;13.832;2023-12-14T08:15:50;2.70;;;1.90;;
12469;SDS011;36499;46.484;13.832;2023-12-14T08:18:17;2.13;;;1.80;;
12469;SDS011;36499;46.484;13.832;2023-12-14T08:20:44;2.40;;;1.90;;
12469;SDS011;36499;46.484;13.832;2023-12-14T08:23:12;3.20;;;2.13;;
12469;SDS011;36499;46.484;13.832;2023-12-14T08:25:39;3.87;;;3.07;;
12469;SDS011;36499;46.484;13.832;2023-12-14T08:28:06;3.77;;;2.60;;
12469;SDS011;36499;46.484;13.832;2023-12-14T08:30:32;3.90;;;2.97;;
12469;SDS011;36499;46.484;13.832;2023-12-14T08:32:59;3.97;;;3.10;;
12469;SDS011;36499;46.484;13.832;2023-12-14T08:35:26;3.70;;;2.90;;
12469;SDS011;36499;46.484;13.832;2023-12-14T08:37:53;3.47;;;2.30;;
12469;SDS011;36499;46.484;13.832;2023-12-14T08:40:21;2.87;;;2.27;;
12469;SDS011;36499;46.484;13.832;2023-12-14T08:42:48;2.23;;;1.83;;
12469;SDS011;36499;46.484;13.832;2023-12-14T08:45:15;2.13;;;1.70;;
12469;SDS011;36499;46.484;13.832;2023-12-14T08:47:42;2.53;;;2.33;;
12469;SDS011;36499;46.484;13.832;2023-12-14T08:50:09;3.13;;;2.00;;
12469;SDS011;36499;46.484;13.832;2023-12-14T08:52:36;2.50;;;1.90;;
12469;SDS011;36499;46.484;13.832;2023-12-14T08:55:03;2.83;;;2.20;;
12469;SDS011;36499;46.484;13.832;2023-12-14T08:57:32;10.07;;;3.47;;
12469;SDS011;36499;46.484;13.832;2023-12-14T08:59:59;5.03;;;3.80;;
12469;SDS011;36499;46.484;13.832;2023-12-14T09:02:26;5.33;;;3.80;;
12469;SDS011;36499;46.484;13.832;2023-12-14T09:04:52;3.70;;;3.13;;
12469;SDS011;36499;46.484;13.832;2023-12-14T09:07:19;5.33;;;2.70;;
12469;SDS011;36499;46.484;13.832;2023-12-14T09:09:46;4.87;;;2.87;;
12469;SDS011;36499;46.484;13.832;2023-12-14T09:12:13;3.33;;;2.57;;
12469;SDS011;36499;46.484;13.832;2023-12-14T09:14:41;2.70;;;2.30;;
12469;SDS011;36499;46.484;13.832;2023-12-14T09:17:08;1.93;;;1.60;;
12469;SDS011;36499;46.484;13.832;2023-12-14T09:19:35;1.60;;;1.50;;
12469;SDS011;36499;46.484;13.832;2023-12-14T09:22:02;5.03;;;2.73;;
12469;SDS011;36499;46.484;13.832;2023-12-14T09:24:28;3.73;;;2.03;;
12469;SDS011;36499;46.484;13.832;2023-12-14T09:26:55;2.10;;;1.87;;
12469;SDS011;36499;46.484;13.832;2023-12-14T09:29:22;1.83;;;1.57;;
12469;SDS011;36499;46.484;13.832;2023-12-14T09:31:51;2.80;;;1.70;;
12469;SDS011;36499;46.484;13.832;2023-12-14T09:34:18;3.73;;;2.20;;
12469;SDS011;36499;46.484;13.832;2023-12-14T09:36:44;3.43;;;2.63;;
12469;SDS011;36499;46.484;13.832;2023-12-14T09:39:11;3.40;;;2.17;;
12469;SDS011;36499;46.484;13.832;2023-12-14T09:41:40;3.63;;;1.83;;
12469;SDS011;36499;46.484;13.832;2023-12-14T09:44:07;2.57;;;2.10;;
12469;SDS011;36499;46.484;13.832;2023-12-14T09:46:35;4.07;;;2.70;;
12469;SDS011;36499;46.484;13.832;2023-12-14T09:49:05;5.80;;;2.90;;
12469;SDS011;36499;46.484;13.832;2023-12-14T09:51:32;4.73;;;3.83;;
12469;SDS011;36499;46.484;13.832;2023-12-14T09:53:58;6.10;;;4.13;;
12469;SDS011;36499;46.484;13.832;2023-12-14T09:56:25;6.00;;;4.13;;
12469;SDS011;36499;46.484;13.832;2023-12-14T09:58:53;5.57;;;3.80;;
12469;SDS011;36499;46.484;13.832;2023-12-14T10:01:20;5.40;;;3.77;;
12469;SDS011;36499;46.484;13.832;2023-12-14T10:03:49;3.57;;;3.00;;
12469;SDS011;36499;46.484;13.832;2023-12-14T10:06:18;5.57;;;3.07;;
12469;SDS011;36499;46.484;13.832;2023-12-14T10:08:54;4.63;;;3.40;;
12469;SDS011;36499;46.484;13.832;2023-12-14T10:11:22;5.33;;;2.80;;
12469;SDS011;36499;46.484;13.832;2023-12-14T10:13:48;5.70;;;3.20;;
12469;SDS011;36499;46.484;13.832;2023-12-14T10:16:26;7.40;;;3.70;;
12469;SDS011;36499;46.484;13.832;2023-12-14T10:18:55;7.37;;;4.80;;
12469;SDS011;36499;46.484;13.832;2023-12-14T10:21:23;9.27;;;4.80;;
12469;SDS011;36499;46.484;13.832;2023-12-14T10:23:50;6.27;;;4.60;;
12469;SDS011;36499;46.484;13.832;2023-12-14T10:26:17;3.97;;;2.57;;
12469;SDS011;36499;46.484;13.832;2023-12-14T10:28:44;5.57;;;2.50;;
12469;SDS011;36499;46.484;13.832;2023-12-14T10:31:11;2.67;;;1.90;;
12469;SDS011;36499;46.484;13.832;2023-12-14T10:33:38;3.27;;;1.90;;
12469;SDS011;36499;46.484;13.832;2023-12-14T10:36:05;5.43;;;2.47;;
12469;SDS011;36499;46.484;13.832;2023-12-14T10:38:35;1.33;;;1.23;;
12469;SDS011;36499;46.484;13.832;2023-12-14T10:41:04;3.87;;;1.20;;
12469;SDS011;36499;46.484;13.832;2023-12-14T10:43:32;1.30;;;1.00;;
12469;SDS011;36499;46.484;13.832;2023-12-14T10:46:03;1.63;;;1.40;;
12469;SDS011;36499;46.484;13.832;2023-12-14T10:48:32;1.87;;;1.10;;
12469;SDS011;36499;46.484;13.832;2023-12-14T10:51:01;1.03;;;0.90;;
12469;SDS011;36499;46.484;13.832;2023-12-14T10:53:30;2.20;;;0.90;;
12469;SDS011;36499;46.484;13.832;2023-12-14T10:55:59;0.70;;;0.70;;
12469;SDS011;36499;46.484;13.832;2023-12-14T10:58:44;0.67;;;0.67;;
12469;SDS011;36499;46.484;13.832;2023-12-14T11:01:13;0.97;;;0.80;;
12469;SDS011;36499;46.484;13.832;2023-12-14T11:03:41;1.10;;;1.00;;
12469;SDS011;36499;46.484;13.832;2023-12-14T11:09:04;0.97;;;0.90;;
12469;SDS011;36499;46.484;13.832;2023-12-14T11:11:39;1.17;;;0.87;;
12469;SDS011;36499;46.484;13.832;2023-12-14T11:14:10;1.33;;;1.00;;
12469;SDS011;36499;46.484;13.832;2023-12-14T11:16:38;0.97;;;0.87;;
12469;SDS011;36499;46.484;13.832;2023-12-14T11:22:11;0.80;;;0.80;;
12469;SDS011;36499;46.484;13.832;2023-12-14T11:24:50;0.77;;;0.77;;
12469;SDS011;36499;46.484;13.832;2023-12-14T11:27:22;1.13;;;0.90;;
12469;SDS011;36499;46.484;13.832;2023-12-14T11:29:53;0.60;;;0.60;;
12469;SDS011;36499;46.484;13.832;2023-12-14T11:32:20;0.97;;;0.70;;
12469;SDS011;36499;46.484;13.832;2023-12-14T11:34:46;0.57;;;0.40;;
12469;SDS011;36499;46.484;13.832;2023-12-14T11:37:13;0.43;;;0.43;;
12469;SDS011;36499;46.484;13.832;2023-12-14T11:39:40;0.80;;;0.80;;
12469;SDS011;36499;46.484;13.832;2023-12-14T11:42:08;1.93;;;1.00;;
12469;SDS011;36499;46.484;13.832;2023-12-14T11:44:37;1.60;;;1.20;;
12469;SDS011;36499;46.484;13.832;2023-12-14T11:47:04;2.20;;;0.97;;
12469;SDS011;36499;46.484;13.832;2023-12-14T11:49:31;1.77;;;1.00;;
12469;SDS011;36499;46.484;13.832;2023-12-14T11:52:01;0.93;;;0.93;;
12469;SDS011;36499;46.484;13.832;2023-12-14T11:54:29;1.47;;;1.07;;
12469;SDS011;36499;46.484;13.832;2023-12-14T11:56:56;2.53;;;1.17;;
12469;SDS011;36499;46.484;13.832;2023-12-14T11:59:23;2.10;;;1.03;;
12469;SDS011;36499;46.484;13.832;2023-12-14T12:01:56;1.73;;;1.10;;
12469;SDS011;36499;46.484;13.832;2023-12-14T12:04:24;1.00;;;0.90;;
12469;SDS011;36499;46.484;13.832;2023-12-14T12:06:58;2.33;;;1.20;;
12469;SDS011;36499;46.484;13.832;2023-12-14T12:09:36;2.80;;;0.93;;
12469;SDS011;36499;46.484;13.832;2023-12-14T12:12:06;2.57;;;1.83;;
12469;SDS011;36499;46.484;13.832;2023-12-14T12:14:34;9.90;;;5.03;;
12469;SDS011;36499;46.484;13.832;2023-12-14T12:17:03;104.30;;;46.77;;
12469;SDS011;36499;46.484;13.832;2023-12-14T12:19:31;83.30;;;32.40;;
12469;SDS011;36499;46.484;13.832;2023-12-14T12:21:59;24.67;;;12.50;;
12469;SDS011;36499;46.484;13.832;2023-12-14T12:24:26;30.70;;;19.50;;
12469;SDS011;36499;46.484;13.832;2023-12-14T12:26:53;4.20;;;3.10;;
12469;SDS011;36499;46.484;13.832;2023-12-14T12:29:20;3.87;;;2.80;;
12469;SDS011;36499;46.484;13.832;2023-12-14T12:31:47;2.57;;;1.47;;
12469;SDS011;36499;46.484;13.832;2023-12-14T12:34:15;5.30;;;3.37;;
12469;SDS011;36499;46.484;13.832;2023-12-14T12:36:42;23.13;;;14.13;;
12469;SDS011;36499;46.484;13.832;2023-12-14T12:39:09;30.60;;;18.10;;
12469;SDS011;36499;46.484;13.832;2023-12-14T12:41:36;62.70;;;36.43;;
12469;SDS011;36499;46.484;13.832;2023-12-14T12:44:02;16.93;;;10.63;;
12469;SDS011;36499;46.484;13.832;2023-12-14T12:46:32;11.90;;;7.23;;
12469;SDS011;36499;46.484;13.832;2023-12-14T12:48:59;17.47;;;9.73;;
12469;SDS011;36499;46.484;13.832;2023-12-14T12:51:28;83.03;;;38.47;;
12469;SDS011;36499;46.484;13.832;2023-12-14T12:53:56;75.37;;;34.77;;
12469;SDS011;36499;46.484;13.832;2023-12-14T12:56:25;8.37;;;3.90;;
12469;SDS011;36499;46.484;13.832;2023-12-14T12:58:53;129.10;;;57.07;;
12469;SDS011;36499;46.484;13.832;2023-12-14T13:01:20;187.97;;;91.80;;
12469;SDS011;36499;46.484;13.832;2023-12-14T13:03:51;98.73;;;51.10;;
12469;SDS011;36499;46.484;13.832;2023-12-14T13:06:20;14.40;;;7.37;;
12469;SDS011;36499;46.484;13.832;2023-12-14T13:08:48;29.00;;;16.00;;
12469;SDS011;36499;46.484;13.832;2023-12-14T13:11:15;9.70;;;5.67;;
12469;SDS011;36499;46.484;13.832;2023-12-14T13:13:42;6.60;;;4.97;;
12469;SDS011;36499;46.484;13.832;2023-12-14T13:16:09;13.10;;;6.83;;
12469;SDS011;36499;46.484;13.832;2023-12-14T13:18:38;1.43;;;0.90;;
12469;SDS011;36499;46.484;13.832;2023-12-14T13:21:05;4.30;;;3.13;;
12469;SDS011;36499;46.484;13.832;2023-12-14T13:23:32;4.20;;;3.47;;
12469;SDS011;36499;46.484;13.832;2023-12-14T13:26:00;1.73;;;1.20;;
12469;SDS011;36499;46.484;13.832;2023-12-14T13:28:27;1.73;;;1.27;;
12469;SDS011;36499;46.484;13.832;2023-12-14T13:30:54;2.00;;;1.60;;
12469;SDS011;36499;46.484;13.832;2023-12-14T13:33:21;1.43;;;0.70;;
12469;SDS011;36499;46.484;13.832;2023-12-14T13:35:47;1.40;;;1.30;;
12469;SDS011;36499;46.484;13.832;2023-12-14T13:38:14;5.40;;;4.27;;
12469;SDS011;36499;46.484;13.832;2023-12-14T13:40:41;3.93;;;3.30;;
12469;SDS011;36499;46.484;13.832;2023-12-14T13:43:09;1.80;;;1.40;;
12469;SDS011;36499;46.484;13.832;2023-12-14T13:45:36;1.40;;;1.30;;
12469;SDS011;36499;46.484;13.832;2023-12-14T13:48:04;2.53;;;1.57;;
12469;SDS011;36499;46.484;13.832;2023-12-14T13:50:32;1.80;;;1.50;;
12469;SDS011;36499;46.484;13.832;2023-12-14T13:52:59;1.07;;;0.90;;
12469;SDS011;36499;46.484;13.832;2023-12-14T13:55:27;1.67;;;0.97;;
12469;SDS011;36499;46.484;13.832;2023-12-14T13:57:53;2.47;;;1.33;;
12469;SDS011;36499;46.484;13.832;2023-12-14T14:00:24;1.73;;;1.30;;
12469;SDS011;36499;46.484;13.832;2023-12-14T14:02:51;3.47;;;1.30;;
12469;SDS011;36499;46.484;13.832;2023-12-14T14:05:18;1.70;;;1.20;;
12469;SDS011;36499;46.484;13.832;2023-12-14T14:07:45;3.77;;;1.13;;
12469;SDS011;36499;46.484;13.832;2023-12-14T14:10:12;3.13;;;1.83;;
12469;SDS011;36499;46.484;13.832;2023-12-14T14:12:39;2.47;;;1.73;;
12469;SDS011;36499;46.484;13.832;2023-12-14T14:15:07;3.53;;;2.37;;
12469;SDS011;36499;46.484;13.832;2023-12-14T14:17:36;2.40;;;1.90;;
12469;SDS011;36499;46.484;13.832;2023-12-14T14:20:03;2.73;;;2.17;;
12469;SDS011;36499;46.484;13.832;2023-12-14T14:22:31;3.17;;;2.17;;
12469;SDS011;36499;46.484;13.832;2023-12-14T14:24:59;2.70;;;2.07;;
12469;SDS011;36499;46.484;13.832;2023-12-14T14:27:25;3.67;;;2.07;;
12469;SDS011;36499;46.484;13.832;2023-12-14T14:29:52;2.43;;;1.67;;
12469;SDS011;36499;46.484;13.832;2023-12-14T14:32:21;4.10;;;2.60;;
12469;SDS011;36499;46.484;13.832;2023-12-14T14:34:49;4.53;;;3.10;;
12469;SDS011;36499;46.484;13.832;2023-12-14T14:37:18;3.70;;;3.00;;
12469;SDS011;36499;46.484;13.832;2023-12-14T14:39:45;3.50;;;2.70;;